createdAt,value
2023-07-04T00:01:07.708Z,27.50
2023-07-04T00:03:36.152Z,27.50
2023-07-04T00:06:03.567Z,27.50
2023-07-04T00:08:35.508Z,27.60
2023-07-04T00:11:03.963Z,27.60
2023-07-04T00:13:32.923Z,27.60
2023-07-04T00:16:00.804Z,27.60
2023-07-04T00:18:29.635Z,27.60
2023-07-04T00:21:07.768Z,27.60
2023-07-04T00:23:36.945Z,27.60
2023-07-04T00:26:08.768Z,27.60
2023-07-04T00:28:39.897Z,27.60
2023-07-04T00:31:08.301Z,27.60
2023-07-04T00:33:35.375Z,27.60
2023-07-04T00:36:05.632Z,27.60
2023-07-04T00:38:38.094Z,27.60
2023-07-04T00:41:21.736Z,27.70
2023-07-04T00:43:57.430Z,27.70
2023-07-04T00:46:37.697Z,27.80
2023-07-04T00:49:20.062Z,27.80
2023-07-04T00:51:56.704Z,27.80
2023-07-04T00:54:30.806Z,27.80
2023-07-04T00:57:07.594Z,27.80
2023-07-04T00:59:45.242Z,27.80
2023-07-04T01:02:18.889Z,27.80
2023-07-04T01:04:48.333Z,27.80
2023-07-04T01:07:36.996Z,27.70
2023-07-04T01:10:15.446Z,27.70
2023-07-04T01:12:42.660Z,27.70
2023-07-04T01:15:10.345Z,27.70
2023-07-04T01:17:37.388Z,27.70
2023-07-04T01:20:09.770Z,27.70
2023-07-04T01:22:55.186Z,27.70
2023-07-04T01:26:08.497Z,27.70
2023-07-04T01:28:35.533Z,27.70
2023-07-04T01:31:02.501Z,27.60
2023-07-04T01:33:29.526Z,27.60
2023-07-04T01:35:57.706Z,27.60
2023-07-04T01:38:24.643Z,27.60
2023-07-04T01:40:51.832Z,27.60
2023-07-04T01:43:19.019Z,27.60
2023-07-04T01:45:47.143Z,27.60
2023-07-04T01:48:15.244Z,27.50
2023-07-04T01:50:42.362Z,27.50
2023-07-04T01:53:13.594Z,27.50
2023-07-04T01:55:40.802Z,27.50
2023-07-04T01:58:07.890Z,27.40
2023-07-04T02:00:35.037Z,27.40
2023-07-04T02:03:02.516Z,27.40
2023-07-04T02:05:31.293Z,27.40
2023-07-04T02:07:58.243Z,27.40
2023-07-04T02:10:25.186Z,27.40
2023-07-04T02:12:52.159Z,27.40
2023-07-04T02:15:19.123Z,27.40
2023-07-04T02:17:46.173Z,27.40
2023-07-04T02:20:14.103Z,27.40
2023-07-04T02:22:43.242Z,27.40
2023-07-04T02:25:11.083Z,27.40
2023-07-04T02:27:38.407Z,27.40
2023-07-04T02:30:06.171Z,27.40
2023-07-04T02:32:33.130Z,27.50
2023-07-04T02:35:00.308Z,27.40
2023-07-04T02:37:27.258Z,27.40
2023-07-04T02:39:54.749Z,27.40
2023-07-04T02:42:21.748Z,27.40
2023-07-04T02:44:48.673Z,27.30
2023-07-04T02:47:15.677Z,27.30
2023-07-04T02:49:42.789Z,27.30
2023-07-04T02:52:09.804Z,27.30
2023-07-04T02:54:36.771Z,27.30
2023-07-04T02:57:04.050Z,27.30
2023-07-04T02:59:31.684Z,27.30
2023-07-04T03:01:58.601Z,27.20
2023-07-04T03:04:25.586Z,27.20
2023-07-04T03:06:52.538Z,27.20
2023-07-04T03:09:19.459Z,27.10
2023-07-04T03:11:46.486Z,27.10
2023-07-04T03:14:13.397Z,27.20
2023-07-04T03:16:40.639Z,27.10
2023-07-04T03:19:08.004Z,27.10
2023-07-04T03:21:34.969Z,27.10
2023-07-04T03:24:01.896Z,27.10
2023-07-04T03:26:29.084Z,27.10
2023-07-04T03:28:55.980Z,27.00
2023-07-04T03:31:22.996Z,27.00
2023-07-04T03:33:51.472Z,27.00
2023-07-04T03:36:18.632Z,27.00
2023-07-04T03:38:45.653Z,27.00
2023-07-04T03:41:12.770Z,26.90
2023-07-04T03:43:40.686Z,26.90
2023-07-04T03:46:07.692Z,26.90
2023-07-04T03:48:34.860Z,26.80
2023-07-04T03:51:02.861Z,26.80
2023-07-04T03:53:29.786Z,26.70
2023-07-04T03:55:56.714Z,26.70
2023-07-04T03:58:24.618Z,26.70
2023-07-04T04:00:52.495Z,26.70
2023-07-04T04:03:19.938Z,26.60
2023-07-04T04:05:47.230Z,26.60
2023-07-04T04:08:14.199Z,26.60
2023-07-04T04:10:41.175Z,26.60
2023-07-04T04:13:08.148Z,26.60
2023-07-04T04:15:35.060Z,26.60
2023-07-04T04:18:02.064Z,26.60
2023-07-04T04:20:29.235Z,26.60
2023-07-04T04:22:56.361Z,26.60
2023-07-04T04:25:23.386Z,26.60
2023-07-04T04:27:50.452Z,26.60
2023-07-04T04:30:17.757Z,26.60
2023-07-04T04:32:46.581Z,26.60
2023-07-04T04:35:14.865Z,26.60
2023-07-04T04:37:41.772Z,26.60
2023-07-04T04:40:09.742Z,26.60
2023-07-04T04:42:37.023Z,26.60
2023-07-04T04:45:05.282Z,26.60
2023-07-04T04:47:35.105Z,26.60
2023-07-04T04:50:03.540Z,26.60
2023-07-04T04:52:32.613Z,26.60
2023-07-04T04:55:03.614Z,26.60
2023-07-04T04:57:31.332Z,26.60
2023-07-04T05:00:00.705Z,26.60
2023-07-04T05:02:30.716Z,26.50
2023-07-04T05:05:00.441Z,26.40
2023-07-04T05:07:28.372Z,26.40
2023-07-04T05:09:56.387Z,26.40
2023-07-04T05:12:23.895Z,26.50
2023-07-04T05:14:51.150Z,26.40
2023-07-04T05:17:18.419Z,26.50
2023-07-04T05:19:49.631Z,26.60
2023-07-04T05:22:18.026Z,26.60
2023-07-04T05:24:45.056Z,26.60
2023-07-04T05:27:12.029Z,26.60
2023-07-04T05:29:38.965Z,26.60
2023-07-04T05:32:06.206Z,26.60
2023-07-04T05:34:33.214Z,26.60
2023-07-04T05:37:03.307Z,26.60
2023-07-04T05:39:30.396Z,26.60
2023-07-04T05:41:57.363Z,26.60
2023-07-04T05:44:24.450Z,26.70
2023-07-04T05:46:54.354Z,26.70
2023-07-04T05:49:21.326Z,26.70
2023-07-04T05:51:48.337Z,26.60
2023-07-04T05:54:15.350Z,26.60
2023-07-04T05:56:42.380Z,26.70
2023-07-04T05:59:11.401Z,26.60
2023-07-04T06:01:43.432Z,26.70
2023-07-04T06:04:11.999Z,26.70
2023-07-04T06:06:42.539Z,26.70
2023-07-04T06:09:14.425Z,26.70
2023-07-04T06:11:46.929Z,26.70
2023-07-04T06:14:25.723Z,26.70
2023-07-04T06:16:53.541Z,26.70
2023-07-04T06:19:20.878Z,26.70
2023-07-04T06:21:47.969Z,26.80
2023-07-04T06:24:17.227Z,26.70
2023-07-04T06:26:44.707Z,26.80
2023-07-04T06:29:11.819Z,26.90
2023-07-04T06:31:43.435Z,26.90
2023-07-04T06:34:12.452Z,26.90
2023-07-04T06:36:39.661Z,26.90
2023-07-04T06:39:06.777Z,26.90
2023-07-04T06:41:33.780Z,27.00
2023-07-04T06:44:00.875Z,27.00
2023-07-04T06:46:27.881Z,27.00
2023-07-04T06:48:54.941Z,27.10
2023-07-04T06:51:22.285Z,27.10
2023-07-04T06:53:51.029Z,27.10
2023-07-04T06:56:21.071Z,27.20
2023-07-04T06:58:55.814Z,27.20
2023-07-04T07:01:28.353Z,27.30
2023-07-04T07:03:57.127Z,27.30
2023-07-04T07:06:24.939Z,27.30
2023-07-04T07:08:52.109Z,27.30
2023-07-04T07:11:21.125Z,27.30
2023-07-04T07:13:48.187Z,27.40
2023-07-04T07:16:18.250Z,27.40
2023-07-04T07:18:46.788Z,27.40
2023-07-04T07:21:22.085Z,27.40
2023-07-04T07:23:53.290Z,27.50
2023-07-04T07:26:25.101Z,27.50
2023-07-04T07:28:53.947Z,27.50
2023-07-04T07:31:28.285Z,27.60
2023-07-04T07:34:00.221Z,27.60
2023-07-04T07:36:33.999Z,27.60
2023-07-04T07:39:04.214Z,27.70
2023-07-04T07:41:38.139Z,27.70
2023-07-04T07:44:06.894Z,27.80
2023-07-04T07:46:34.112Z,27.80
2023-07-04T07:49:01.475Z,27.80
2023-07-04T07:51:28.884Z,27.80
2023-07-04T07:53:57.488Z,27.90
2023-07-04T07:56:26.486Z,27.90
2023-07-04T07:58:53.992Z,28.00
2023-07-04T08:01:32.385Z,28.00
2023-07-04T08:04:00.658Z,28.10
2023-07-04T08:06:35.501Z,28.10
2023-07-04T08:09:03.389Z,28.20
2023-07-04T08:11:32.220Z,28.20
2023-07-04T08:14:00.295Z,28.30
2023-07-04T08:16:30.598Z,28.30
2023-07-04T08:19:00.102Z,28.30
2023-07-04T08:21:28.767Z,28.40
2023-07-04T08:23:55.861Z,28.50
2023-07-04T08:26:25.586Z,28.50
2023-07-04T08:28:57.468Z,28.50
2023-07-04T08:31:25.276Z,28.50
2023-07-04T08:33:52.225Z,28.60
2023-07-04T08:36:19.695Z,28.60
2023-07-04T08:38:49.179Z,28.70
2023-07-04T08:41:38.359Z,28.70
2023-07-04T08:44:10.877Z,28.70
2023-07-04T08:46:42.867Z,28.90
2023-07-04T08:49:39.827Z,28.90
2023-07-04T08:52:24.550Z,29.00
2023-07-04T08:54:52.361Z,29.10
2023-07-04T08:57:30.656Z,29.20
2023-07-04T09:00:07.644Z,29.40
2023-07-04T09:03:07.118Z,29.50
2023-07-04T09:05:55.265Z,29.60
2023-07-04T09:08:31.102Z,29.60
2023-07-04T09:11:04.838Z,29.80
2023-07-04T09:13:37.114Z,30.10
2023-07-04T09:16:12.430Z,30.50
2023-07-04T09:18:57.657Z,31.10
2023-07-04T09:21:26.486Z,31.70
2023-07-04T09:23:56.935Z,32.50
2023-07-04T09:26:27.244Z,33.30
2023-07-04T09:28:56.387Z,33.90
2023-07-04T09:31:31.996Z,34.50
2023-07-04T09:34:03.589Z,35.00
2023-07-04T09:36:37.250Z,35.20
2023-07-04T09:39:05.993Z,35.40
2023-07-04T09:41:47.747Z,35.30
2023-07-04T09:44:29.108Z,35.20
2023-07-04T09:46:58.272Z,34.90
2023-07-04T09:49:26.724Z,34.80
2023-07-04T09:52:01.101Z,34.70
2023-07-04T09:54:28.546Z,34.50
2023-07-04T09:56:55.980Z,34.40
2023-07-04T09:59:30.300Z,34.20
2023-07-04T10:02:15.008Z,34.10
2023-07-04T10:04:42.391Z,34.00
2023-07-04T10:07:17.168Z,33.90
2023-07-04T10:09:56.448Z,33.70
2023-07-04T10:12:25.652Z,33.60
2023-07-04T10:14:55.646Z,33.50
2023-07-04T10:17:28.899Z,33.30
2023-07-04T10:20:07.049Z,33.20
2023-07-04T10:22:40.268Z,33.10
2023-07-04T10:25:23.210Z,33.00
2023-07-04T10:27:59.780Z,32.90
2023-07-04T10:30:31.759Z,32.80
2023-07-04T10:33:05.131Z,32.80
2023-07-04T10:35:36.024Z,32.80
2023-07-04T10:38:34.012Z,32.90
2023-07-04T10:41:10.938Z,33.00
2023-07-04T10:43:41.104Z,33.10
2023-07-04T10:46:13.102Z,33.10
2023-07-04T10:48:40.646Z,33.20
2023-07-04T10:51:12.906Z,33.20
2023-07-04T10:53:39.832Z,33.10
2023-07-04T10:56:14.697Z,33.00
2023-07-04T10:58:45.632Z,33.00
2023-07-04T11:01:23.937Z,32.90
2023-07-04T11:04:21.677Z,32.80
2023-07-04T11:07:00.182Z,32.70
2023-07-04T11:09:32.975Z,32.60
2023-07-04T11:12:03.684Z,32.60
2023-07-04T11:14:32.537Z,32.60
2023-07-04T11:17:05.311Z,32.60
2023-07-04T11:19:36.953Z,32.60
2023-07-04T11:22:07.380Z,32.60
2023-07-04T11:25:00.830Z,32.60
2023-07-04T11:27:32.906Z,32.60
2023-07-04T11:30:04.580Z,32.60
2023-07-04T11:32:41.197Z,32.70
2023-07-04T11:35:11.929Z,32.60
2023-07-04T11:37:42.214Z,32.60
2023-07-04T11:40:31.838Z,32.60
2023-07-04T11:43:05.162Z,32.70
2023-07-04T11:45:33.757Z,32.70
2023-07-04T11:48:12.447Z,32.80
2023-07-04T11:51:05.676Z,32.70
2023-07-04T11:53:53.992Z,32.80
2023-07-04T11:56:35.808Z,32.80
2023-07-04T11:59:39.267Z,32.90
2023-07-04T12:02:30.658Z,32.90
2023-07-04T12:04:58.836Z,32.90
2023-07-04T12:07:47.523Z,32.90
2023-07-04T12:10:19.858Z,32.90
2023-07-04T12:12:58.502Z,32.90
2023-07-04T12:15:36.865Z,32.90
2023-07-04T12:18:22.908Z,32.80
2023-07-04T12:20:50.060Z,32.90
2023-07-04T12:23:17.114Z,33.00
2023-07-04T12:25:47.347Z,33.10
2023-07-04T12:28:16.880Z,33.20
2023-07-04T12:31:40.918Z,33.30
2023-07-04T12:33:49.379Z,33.40
2023-07-04T12:36:18.315Z,33.50
2023-07-04T12:38:55.140Z,33.60
2023-07-04T12:41:28.904Z,33.60
2023-07-04T12:51:36.747Z,33.60
2023-07-04T12:54:06.083Z,33.60
2023-07-04T12:56:34.307Z,33.50
2023-07-04T12:59:01.393Z,33.50
2023-07-04T13:01:32.626Z,33.50
2023-07-04T13:04:02.474Z,33.60
2023-07-04T13:06:30.233Z,33.50
2023-07-04T13:08:58.482Z,33.50
2023-07-04T13:11:27.579Z,33.60
2023-07-04T13:14:10.215Z,33.60
2023-07-04T13:16:39.468Z,33.70
2023-07-04T13:19:06.783Z,33.90
2023-07-04T13:21:41.686Z,34.40
2023-07-04T13:26:42.842Z,35.50
2023-07-04T13:34:31.686Z,37.00
2023-07-04T13:37:06.515Z,37.50
2023-07-04T13:42:03.759Z,38.20
2023-07-04T13:47:04.806Z,38.70
2023-07-04T13:49:31.733Z,39.00
2023-07-04T13:51:59.309Z,39.10
2023-07-04T13:54:26.271Z,39.20
2023-07-04T13:56:53.182Z,39.30
2023-07-04T13:59:20.899Z,39.40
2023-07-04T14:06:52.956Z,39.70
2023-07-04T14:09:21.038Z,39.60
2023-07-04T14:11:48.514Z,39.60
2023-07-04T14:17:12.682Z,39.50
2023-07-04T14:22:02.333Z,39.40
2023-07-04T14:24:29.411Z,39.30
2023-07-04T14:26:56.437Z,39.20
2023-07-04T14:29:23.469Z,39.10
2023-07-04T14:31:50.960Z,39.00
2023-07-04T14:34:18.169Z,38.80
2023-07-04T14:36:45.054Z,38.60
2023-07-04T14:39:11.935Z,38.50
2023-07-04T14:44:08.703Z,38.20
2023-07-04T14:46:35.922Z,38.00
2023-07-04T14:49:03.024Z,37.90
2023-07-04T14:51:30.031Z,37.90
2023-07-04T14:53:56.926Z,37.90
2023-07-04T14:56:33.196Z,38.20
2023-07-04T14:59:07.830Z,38.60
2023-07-04T15:01:34.960Z,39.00
2023-07-04T15:04:02.008Z,39.30
2023-07-04T15:06:31.358Z,39.60
2023-07-04T15:08:58.419Z,39.90
2023-07-04T15:11:25.687Z,40.00
2023-07-04T15:13:52.663Z,40.20
2023-07-04T15:16:19.934Z,40.40
2023-07-04T15:18:47.007Z,40.50
2023-07-04T15:21:14.014Z,40.60
2023-07-04T15:23:41.079Z,40.70
2023-07-04T15:26:25.171Z,40.80
2023-07-04T15:28:54.733Z,40.80
2023-07-04T15:31:21.892Z,41.00
2023-07-04T15:33:50.162Z,41.00
2023-07-04T15:36:17.613Z,41.10
2023-07-04T15:38:44.849Z,41.10
2023-07-04T15:41:12.416Z,41.20
2023-07-04T15:43:40.146Z,41.20
2023-07-04T15:46:11.793Z,41.00
2023-07-04T15:48:40.433Z,40.70
2023-07-04T15:51:13.211Z,40.40
2023-07-04T15:53:40.334Z,40.00
2023-07-04T15:56:12.800Z,39.60
2023-07-04T15:58:40.324Z,39.20
2023-07-04T16:01:10.146Z,38.80
2023-07-04T16:03:38.012Z,38.50
2023-07-04T16:06:11.175Z,38.20
2023-07-04T16:08:40.466Z,38.00
2023-07-04T16:11:12.073Z,37.70
2023-07-04T16:13:40.935Z,37.50
2023-07-04T16:16:09.805Z,37.20
2023-07-04T16:18:37.075Z,37.10
2023-07-04T16:21:04.184Z,36.90
2023-07-04T16:23:34.263Z,36.70
2023-07-04T16:26:01.477Z,36.60
2023-07-04T16:28:28.909Z,36.50
2023-07-04T16:31:03.404Z,36.30
2023-07-04T16:33:30.961Z,36.20
2023-07-04T16:35:58.103Z,36.10
2023-07-04T16:38:26.529Z,35.90
2023-07-04T16:40:54.885Z,35.80
2023-07-04T16:43:22.704Z,35.70
2023-07-04T16:45:49.930Z,35.60
2023-07-04T16:48:17.292Z,35.50
2023-07-04T16:50:44.389Z,35.30
2023-07-04T16:53:11.587Z,35.30
2023-07-04T16:55:39.148Z,35.20
2023-07-04T16:58:06.716Z,35.10
2023-07-04T17:00:35.208Z,35.00
2023-07-04T17:03:02.354Z,35.00
2023-07-04T17:05:29.635Z,34.90
2023-07-04T17:07:56.907Z,34.80
2023-07-04T17:10:23.998Z,34.70
2023-07-04T17:12:51.033Z,34.70
2023-07-04T17:15:19.131Z,34.60
2023-07-04T17:17:46.599Z,34.60
2023-07-04T17:20:13.952Z,34.50
2023-07-04T17:22:41.258Z,34.40
2023-07-04T17:25:14.020Z,34.40
2023-07-04T17:27:41.964Z,34.40
2023-07-04T17:30:09.310Z,34.30
2023-07-04T17:32:36.442Z,34.20
2023-07-04T17:35:06.885Z,34.20
2023-07-04T17:37:34.378Z,34.20
2023-07-04T17:40:01.292Z,34.10
2023-07-04T17:42:30.883Z,34.00
2023-07-04T17:45:01.046Z,33.90
2023-07-04T17:47:29.240Z,33.90
2023-07-04T17:49:57.268Z,33.90
2023-07-04T17:52:25.405Z,33.80
2023-07-04T17:54:52.314Z,33.70
2023-07-04T17:57:27.839Z,33.60
2023-07-04T17:59:56.133Z,33.60
2023-07-04T18:02:23.720Z,33.50
2023-07-04T18:04:55.140Z,33.50
2023-07-04T18:07:24.191Z,33.40
2023-07-04T18:09:53.085Z,33.40
2023-07-04T18:12:25.829Z,33.30
2023-07-04T18:14:55.470Z,33.20
2023-07-04T18:17:22.631Z,33.10
2023-07-04T18:19:56.399Z,33.10
2023-07-04T18:22:26.474Z,33.00
2023-07-04T18:24:55.009Z,32.90
2023-07-04T18:27:23.078Z,32.90
2023-07-04T18:29:52.808Z,32.80
2023-07-04T18:32:20.583Z,32.70
2023-07-04T18:34:47.590Z,32.60
2023-07-04T18:37:14.558Z,32.50
2023-07-04T18:39:41.513Z,32.50
2023-07-04T18:42:08.574Z,32.40
2023-07-04T18:44:36.267Z,32.30
2023-07-04T18:47:04.299Z,32.30
2023-07-04T18:49:31.337Z,32.20
2023-07-04T18:52:35.070Z,32.00
2023-07-04T18:55:02.556Z,32.00
2023-07-04T18:57:29.704Z,31.90
2023-07-04T18:59:56.676Z,31.80
2023-07-04T19:02:23.600Z,31.80
2023-07-04T19:04:50.972Z,31.70
2023-07-04T19:07:18.254Z,31.60
2023-07-04T19:09:45.468Z,31.50
2023-07-04T19:12:12.409Z,31.50
2023-07-04T19:14:39.832Z,31.40
2023-07-04T19:17:10.617Z,31.40
2023-07-04T19:19:40.640Z,31.30
2023-07-04T19:22:11.193Z,31.30
2023-07-04T19:24:40.620Z,31.20
2023-07-04T19:27:11.465Z,31.20
2023-07-04T19:29:38.628Z,31.10
2023-07-04T19:32:07.217Z,31.00
2023-07-04T19:34:35.183Z,31.00
2023-07-04T19:37:03.227Z,31.00
2023-07-04T19:39:34.009Z,30.90
2023-07-04T19:42:01.936Z,30.90
2023-07-04T19:44:28.971Z,30.90
2023-07-04T19:46:55.964Z,30.90
2023-07-04T19:49:24.106Z,30.80
2023-07-04T19:51:51.974Z,30.80
2023-07-04T19:54:21.394Z,30.70
2023-07-04T19:56:48.974Z,30.60
2023-07-04T19:59:15.844Z,30.60
2023-07-04T20:01:45.434Z,30.60
2023-07-04T20:04:12.650Z,30.50
2023-07-04T20:06:39.845Z,30.50
2023-07-04T20:09:09.602Z,30.40
2023-07-04T20:11:36.502Z,30.40
2023-07-04T20:14:06.517Z,30.30
2023-07-04T20:16:34.615Z,30.30
2023-07-04T20:19:03.224Z,30.20
2023-07-04T20:21:31.208Z,30.20
2023-07-04T20:23:58.165Z,30.20
2023-07-04T20:26:26.017Z,30.10
2023-07-04T20:28:52.978Z,30.10
2023-07-04T20:31:19.952Z,30.10
2023-07-04T20:33:48.296Z,30.00
2023-07-04T20:36:15.314Z,29.90
2023-07-04T20:38:42.344Z,29.90
2023-07-04T20:41:11.008Z,29.80
2023-07-04T20:43:40.542Z,29.70
2023-07-04T20:46:10.378Z,29.80
2023-07-04T20:48:37.352Z,29.70
2023-07-04T20:51:09.076Z,29.60
2023-07-04T20:53:41.205Z,29.60
2023-07-04T20:56:10.257Z,29.60
2023-07-04T20:58:37.840Z,29.50
2023-07-04T21:01:05.087Z,29.40
2023-07-04T21:03:35.946Z,29.40
2023-07-04T21:06:05.004Z,29.40
2023-07-04T21:08:34.098Z,29.30
2023-07-04T21:11:08.051Z,29.30
2023-07-04T21:13:37.804Z,29.20
2023-07-04T21:16:13.533Z,29.20
2023-07-04T21:18:45.515Z,29.10
2023-07-04T21:21:13.604Z,29.10
2023-07-04T21:23:41.231Z,29.00
2023-07-04T21:26:08.629Z,29.00
2023-07-04T21:28:36.427Z,29.00
2023-07-04T21:31:08.866Z,28.90
2023-07-04T21:33:36.369Z,28.90
2023-07-04T21:36:06.458Z,28.90
2023-07-04T21:38:35.392Z,28.90
2023-07-04T21:41:03.903Z,28.90
2023-07-04T21:43:30.896Z,28.90
2023-07-04T21:46:06.683Z,28.80
2023-07-04T21:48:34.224Z,28.80
2023-07-04T21:51:07.284Z,28.90
2023-07-04T21:53:37.069Z,28.80
2023-07-04T21:56:04.416Z,28.80
2023-07-04T21:58:31.434Z,28.80
2023-07-04T22:01:05.174Z,28.80
2023-07-04T22:03:34.512Z,28.80
2023-07-04T22:06:06.532Z,28.70
2023-07-04T22:08:36.029Z,28.70
2023-07-04T22:11:04.352Z,28.70
2023-07-04T22:13:33.543Z,28.70
2023-07-04T22:16:03.005Z,28.70
2023-07-04T22:18:32.234Z,28.70
2023-07-04T22:20:59.703Z,28.70
2023-07-04T22:23:26.884Z,28.60
2023-07-04T22:26:00.192Z,28.60
2023-07-04T22:28:27.604Z,28.60
2023-07-04T22:31:03.442Z,28.60
2023-07-04T22:33:33.309Z,28.50
2023-07-04T22:36:01.879Z,28.50
2023-07-04T22:38:29.832Z,28.40
2023-07-04T22:40:56.862Z,28.40
2023-07-04T22:43:24.698Z,28.30
2023-07-04T22:45:54.992Z,28.20
2023-07-04T22:48:22.496Z,28.20
2023-07-04T22:51:04.237Z,28.10
2023-07-04T22:53:31.382Z,28.00
2023-07-04T22:56:05.678Z,27.90
2023-07-04T22:58:37.845Z,27.90
2023-07-04T23:01:33.068Z,27.80
2023-07-04T23:04:00.105Z,27.70
2023-07-04T23:06:28.407Z,27.70
2023-07-04T23:08:55.627Z,27.60
2023-07-04T23:11:23.702Z,27.60
2023-07-04T23:13:50.892Z,27.60
2023-07-04T23:16:23.978Z,27.60
2023-07-04T23:18:51.209Z,27.50
2023-07-04T23:21:19.682Z,27.50
2023-07-04T23:23:49.446Z,27.50
2023-07-04T23:26:23.688Z,27.50
2023-07-04T23:28:50.753Z,27.40
2023-07-04T23:31:17.934Z,27.40
2023-07-04T23:33:46.777Z,27.40
2023-07-04T23:36:16.807Z,27.30
2023-07-04T23:38:45.131Z,27.20
2023-07-04T23:41:12.442Z,27.20
2023-07-04T23:43:40.414Z,27.20
2023-07-04T23:46:07.437Z,27.10
2023-07-04T23:48:34.575Z,27.10
2023-07-04T23:51:01.602Z,27.00
2023-07-04T23:53:29.580Z,27.00
2023-07-04T23:55:57.631Z,27.00
2023-07-04T23:58:24.713Z,27.00
